Time;durP1;ratioP1;P1;durP2;ratioP2;P2;SDS_P1;SDS_P2;PMS_P1;PMS_P2;Temp;Humidity;BMP_temperature;BMP_pressure;BME280_temperature;BME280_humidity;BME280_pressure;Samples;Min_cycle;Max_cycle;Signal;HPM_P1;HPM_P2
2022/05/05 00:01:53;;;;;;;12.48;7.85;;;;;;;;;;5034929;28;20058;-70
2022/05/05 00:04:21;;;;;;;15.43;8.30;;;;;;;;;;5033935;28;20519;-70
2022/05/05 00:06:49;;;;;;;14.10;7.68;;;;;;;;;;5035234;28;20127;-70
2022/05/05 00:09:15;;;;;;;19.83;8.80;;;;;;;;;;5033656;28;20064;-70
2022/05/05 00:14:32;;;;;;;11.93;7.43;;;;;;;;;;5033013;28;20058;-70
2022/05/05 00:17:00;;;;;;;17.38;7.90;;;;;;;;;;5033292;28;20057;-70
2022/05/05 00:19:29;;;;;;;20.75;8.40;;;;;;;;;;5033931;28;20529;-70
2022/05/05 00:21:55;;;;;;;14.48;8.25;;;;;;;;;;5033878;28;20379;-70
2022/05/05 00:24:22;;;;;;;13.98;7.65;;;;;;;;;;5034583;28;20056;-70
2022/05/05 00:26:49;;;;;;;14.57;8.07;;;;;;;;;;5033854;28;20058;-69
2022/05/05 00:29:18;;;;;;;20.55;8.50;;;;;;;;;;5031786;28;20050;-69
2022/05/05 00:31:45;;;;;;;14.10;7.32;;;;;;;;;;5033856;28;20050;-70
2022/05/05 00:34:11;;;;;;;17.70;8.57;;;;;;;;;;5032392;28;20060;-70
2022/05/05 00:36:38;;;;;;;15.65;8.00;;;;;;;;;;5032166;28;20058;-70
2022/05/05 00:39:05;;;;;;;15.23;7.93;;;;;;;;;;5034045;28;20065;-70
2022/05/05 00:41:35;;;;;;;13.30;7.25;;;;;;;;;;5034729;28;20054;-70
2022/05/05 00:44:06;;;;;;;12.85;7.32;;;;;;;;;;5033033;28;20064;-70
2022/05/05 00:46:33;;;;;;;14.45;7.68;;;;;;;;;;5032289;28;20062;-69
2022/05/05 00:49:00;;;;;;;13.82;8.10;;;;;;;;;;5030196;28;20112;-70
2022/05/05 00:51:26;;;;;;;14.63;8.15;;;;;;;;;;5032822;28;20066;-70
2022/05/05 00:53:54;;;;;;;13.20;8.32;;;;;;;;;;5032212;28;20526;-70
2022/05/05 00:56:21;;;;;;;16.08;7.60;;;;;;;;;;5034591;28;20050;-70
2022/05/05 00:58:48;;;;;;;13.77;8.15;;;;;;;;;;5033336;28;20506;-69
2022/05/05 01:01:17;;;;;;;12.02;7.93;;;;;;;;;;5032382;28;20498;-69
2022/05/05 01:03:44;;;;;;;13.27;7.97;;;;;;;;;;5033163;28;20112;-69
2022/05/05 01:06:11;;;;;;;13.48;7.88;;;;;;;;;;5034666;28;20052;-70
2022/05/05 01:08:37;;;;;;;15.45;9.30;;;;;;;;;;5029432;28;20056;-69
2022/05/05 01:11:04;;;;;;;12.95;8.45;;;;;;;;;;5031736;28;20050;-70
2022/05/05 01:13:31;;;;;;;17.63;8.63;;;;;;;;;;5033562;28;20058;-70
2022/05/05 01:15:58;;;;;;;16.63;8.40;;;;;;;;;;5031804;28;20065;-70
2022/05/05 01:18:25;;;;;;;12.80;8.05;;;;;;;;;;5032406;28;20053;-70
2022/05/05 01:20:53;;;;;;;18.13;9.13;;;;;;;;;;5030776;28;20060;-70
2022/05/05 01:23:20;;;;;;;19.33;8.50;;;;;;;;;;5031695;28;20054;-70
2022/05/05 01:28:33;;;;;;;13.80;9.23;;;;;;;;;;5025372;28;20060;-70
2022/05/05 01:31:00;;;;;;;13.77;8.05;;;;;;;;;;5030068;28;20458;-69
2022/05/05 01:33:27;;;;;;;15.30;8.88;;;;;;;;;;5029592;28;20050;-70
2022/05/05 01:35:55;;;;;;;15.80;8.45;;;;;;;;;;5031362;28;20081;-70
2022/05/05 01:38:23;;;;;;;17.85;9.10;;;;;;;;;;5034067;28;20053;-70
2022/05/05 01:40:49;;;;;;;13.57;8.85;;;;;;;;;;5033167;28;20433;-70
2022/05/05 01:43:16;;;;;;;16.25;9.30;;;;;;;;;;5034185;28;20497;-70
2022/05/05 01:45:44;;;;;;;17.75;9.63;;;;;;;;;;5030461;28;20054;-70
2022/05/05 01:48:10;;;;;;;19.00;9.60;;;;;;;;;;5029121;28;20058;-70
2022/05/05 01:50:37;;;;;;;19.73;9.32;;;;;;;;;;5032044;28;20054;-70
2022/05/05 01:53:03;;;;;;;12.55;8.55;;;;;;;;;;5033866;28;20058;-70
2022/05/05 01:55:30;;;;;;;13.95;8.80;;;;;;;;;;5032005;28;20046;-70
2022/05/05 01:57:57;;;;;;;15.10;8.52;;;;;;;;;;5032674;28;20061;-69
2022/05/05 02:00:23;;;;;;;15.00;10.27;;;;;;;;;;5032899;28;20061;-70
2022/05/05 02:02:50;;;;;;;17.77;9.73;;;;;;;;;;5032813;28;20076;-70
2022/05/05 02:05:19;;;;;;;18.55;9.82;;;;;;;;;;5032010;28;20054;-70
2022/05/05 02:07:46;;;;;;;17.17;8.95;;;;;;;;;;5033713;28;20525;-70
2022/05/05 02:10:14;;;;;;;13.75;9.63;;;;;;;;;;5032765;28;20058;-70
2022/05/05 02:12:41;;;;;;;12.25;8.68;;;;;;;;;;5032088;28;20422;-70
2022/05/05 02:15:08;;;;;;;18.48;9.32;;;;;;;;;;5033170;28;20057;-70
2022/05/05 02:17:40;;;;;;;15.43;9.40;;;;;;;;;;5030466;28;20056;-70
2022/05/05 02:20:07;;;;;;;17.52;9.45;;;;;;;;;;5033028;28;20057;-70
2022/05/05 02:22:33;;;;;;;14.45;8.63;;;;;;;;;;5031510;28;20058;-70
2022/05/05 02:25:00;;;;;;;14.57;9.43;;;;;;;;;;5033314;28;20458;-70
2022/05/05 02:27:26;;;;;;;17.67;9.82;;;;;;;;;;5033061;28;20058;-70
2022/05/05 02:29:52;;;;;;;18.63;9.57;;;;;;;;;;5032536;28;20065;-70
2022/05/05 02:32:19;;;;;;;16.08;9.10;;;;;;;;;;5027168;28;20057;-70
2022/05/05 02:34:46;;;;;;;16.90;9.30;;;;;;;;;;5031024;28;20060;-70
2022/05/05 02:39:58;;;;;;;14.43;9.38;;;;;;;;;;5025584;28;20418;-70
2022/05/05 02:42:25;;;;;;;16.25;9.80;;;;;;;;;;5012087;28;20495;-70
2022/05/05 02:44:51;;;;;;;13.32;9.10;;;;;;;;;;5022564;28;20058;-69
2022/05/05 02:47:17;;;;;;;16.23;9.90;;;;;;;;;;5029292;28;20054;-70
2022/05/05 02:49:43;;;;;;;16.15;9.20;;;;;;;;;;5031195;28;20060;-70
2022/05/05 02:52:10;;;;;;;14.20;9.98;;;;;;;;;;5031481;28;20532;-70
2022/05/05 02:54:50;;;;;;;12.40;8.48;;;;;;;;;;5033244;28;20058;-70
2022/05/05 02:57:20;;;;;;;16.38;9.57;;;;;;;;;;5032939;28;20180;-70
2022/05/05 02:59:50;;;;;;;13.55;9.55;;;;;;;;;;5031055;28;20137;-70
2022/05/05 03:02:17;;;;;;;24.92;9.77;;;;;;;;;;5032715;28;20057;-70
2022/05/05 03:04:43;;;;;;;15.20;9.52;;;;;;;;;;5030757;28;20050;-70
2022/05/05 03:07:09;;;;;;;16.58;9.57;;;;;;;;;;5032752;28;20489;-70
2022/05/05 03:09:36;;;;;;;15.95;9.68;;;;;;;;;;5031288;28;20058;-70
2022/05/05 03:12:02;;;;;;;16.38;9.93;;;;;;;;;;5031937;28;20054;-70
2022/05/05 03:14:29;;;;;;;13.55;9.60;;;;;;;;;;5030385;28;20053;-70
2022/05/05 03:16:55;;;;;;;18.45;9.30;;;;;;;;;;5031350;28;20058;-70
2022/05/05 03:19:21;;;;;;;19.23;10.48;;;;;;;;;;5031904;28;20061;-70
2022/05/05 03:21:47;;;;;;;13.65;8.75;;;;;;;;;;5032083;28;20058;-70
2022/05/05 03:24:14;;;;;;;19.98;10.38;;;;;;;;;;5032619;28;20572;-70
2022/05/05 03:26:40;;;;;;;12.57;9.20;;;;;;;;;;5030911;28;20057;-70
2022/05/05 03:29:06;;;;;;;17.60;10.90;;;;;;;;;;5032449;28;20060;-70
2022/05/05 03:31:32;;;;;;;20.50;10.00;;;;;;;;;;5031017;28;20058;-70
2022/05/05 03:33:59;;;;;;;19.60;10.25;;;;;;;;;;5027157;28;20060;-70
2022/05/05 03:36:25;;;;;;;17.42;9.55;;;;;;;;;;5029147;28;20050;-70
2022/05/05 03:38:52;;;;;;;15.57;10.25;;;;;;;;;;5032054;28;20141;-70
2022/05/05 03:41:19;;;;;;;15.13;9.77;;;;;;;;;;5031627;28;20054;-70
2022/05/05 03:43:45;;;;;;;13.57;9.50;;;;;;;;;;5031582;28;20050;-70
2022/05/05 03:46:12;;;;;;;16.02;9.43;;;;;;;;;;5031305;28;20518;-70
2022/05/05 03:48:38;;;;;;;19.17;10.55;;;;;;;;;;5030017;28;20137;-70
2022/05/05 03:51:04;;;;;;;19.05;10.55;;;;;;;;;;5031982;28;20502;-70
2022/05/05 03:53:31;;;;;;;17.45;9.80;;;;;;;;;;5031248;28;20080;-70
2022/05/05 03:55:57;;;;;;;14.05;8.90;;;;;;;;;;5035575;28;20064;-70
2022/05/05 03:58:25;;;;;;;16.75;9.73;;;;;;;;;;5033191;28;20052;-70
2022/05/05 04:00:52;;;;;;;14.70;9.73;;;;;;;;;;5033973;28;20060;-70
2022/05/05 04:03:30;;;;;;;14.55;9.60;;;;;;;;;;5031056;28;20062;-70
2022/05/05 04:05:59;;;;;;;15.65;10.02;;;;;;;;;;5015465;28;20054;-70
2022/05/05 04:08:25;;;;;;;19.35;10.50;;;;;;;;;;5025722;28;20054;-70
2022/05/05 04:10:52;;;;;;;19.30;11.32;;;;;;;;;;5032700;28;20076;-70
2022/05/05 04:13:19;;;;;;;19.85;9.68;;;;;;;;;;5034520;28;20060;-70
2022/05/05 04:15:45;;;;;;;15.00;9.98;;;;;;;;;;5033339;28;20050;-70
2022/05/05 04:18:12;;;;;;;18.73;11.57;;;;;;;;;;5033279;28;20054;-70
2022/05/05 04:20:39;;;;;;;21.55;11.23;;;;;;;;;;5033509;28;20053;-70
2022/05/05 04:23:06;;;;;;;16.33;10.48;;;;;;;;;;5032026;28;20053;-69
2022/05/05 04:25:52;;;;;;;15.38;9.77;;;;;;;;;;5032929;28;20057;-70
2022/05/05 04:28:18;;;;;;;21.05;10.73;;;;;;;;;;5033696;28;20060;-70
2022/05/05 04:30:45;;;;;;;14.43;10.40;;;;;;;;;;5034097;28;20056;-71
2022/05/05 04:33:12;;;;;;;23.92;10.95;;;;;;;;;;5031055;28;20407;-70
2022/05/05 04:35:38;;;;;;;14.75;9.40;;;;;;;;;;5032140;28;20490;-70
2022/05/05 04:38:05;;;;;;;16.08;9.65;;;;;;;;;;5031276;28;20060;-70
2022/05/05 04:40:31;;;;;;;13.98;9.68;;;;;;;;;;5035129;28;20058;-70
2022/05/05 04:42:58;;;;;;;14.38;8.48;;;;;;;;;;5035362;28;20099;-70
2022/05/05 04:45:24;;;;;;;17.20;9.45;;;;;;;;;;5031568;28;20054;-70
2022/05/05 04:47:50;;;;;;;18.08;10.07;;;;;;;;;;5033457;28;20058;-71
2022/05/05 04:50:17;;;;;;;13.15;9.15;;;;;;;;;;5030113;28;20060;-71
2022/05/05 04:52:44;;;;;;;16.35;9.40;;;;;;;;;;5022435;28;20062;-69
2022/05/05 04:55:10;;;;;;;17.20;9.30;;;;;;;;;;5014887;28;20461;-69
2022/05/05 04:57:38;;;;;;;17.17;9.70;;;;;;;;;;5026286;28;20054;-70
2022/05/05 05:00:05;;;;;;;20.35;9.35;;;;;;;;;;5032925;28;20068;-69
2022/05/05 05:02:32;;;;;;;16.75;10.48;;;;;;;;;;5030296;28;20057;-69
2022/05/05 05:04:58;;;;;;;16.27;9.00;;;;;;;;;;5032035;28;20057;-69
2022/05/05 05:07:24;;;;;;;19.10;8.85;;;;;;;;;;5033022;28;20050;-69
2022/05/05 05:09:51;;;;;;;14.13;9.82;;;;;;;;;;5033632;28;20057;-69
2022/05/05 05:12:17;;;;;;;12.85;8.65;;;;;;;;;;5032257;28;20058;-69
2022/05/05 05:14:43;;;;;;;19.73;9.25;;;;;;;;;;5030539;28;20083;-68
2022/05/05 05:17:09;;;;;;;16.50;9.75;;;;;;;;;;5034142;28;20112;-69
2022/05/05 05:19:36;;;;;;;17.90;9.60;;;;;;;;;;5033780;28;20108;-69
2022/05/05 05:22:02;;;;;;;16.15;9.30;;;;;;;;;;5031924;28;20053;-69
2022/05/05 05:24:28;;;;;;;19.33;9.40;;;;;;;;;;5034258;28;20050;-69
2022/05/05 05:26:54;;;;;;;17.08;9.43;;;;;;;;;;5032849;28;20557;-69
2022/05/05 05:29:21;;;;;;;17.67;9.27;;;;;;;;;;5032180;28;20050;-69
2022/05/05 05:31:47;;;;;;;18.05;10.38;;;;;;;;;;5030626;28;20050;-68
2022/05/05 05:34:17;;;;;;;19.20;9.85;;;;;;;;;;5031798;28;20054;-69
2022/05/05 05:36:43;;;;;;;16.45;10.00;;;;;;;;;;5027543;28;20410;-68
2022/05/05 05:39:09;;;;;;;15.90;9.45;;;;;;;;;;5030374;28;20053;-69
2022/05/05 05:41:36;;;;;;;13.00;9.02;;;;;;;;;;5031965;28;20066;-69
2022/05/05 05:44:02;;;;;;;16.75;9.50;;;;;;;;;;5029638;28;20149;-70
2022/05/05 05:46:28;;;;;;;19.30;9.80;;;;;;;;;;5019969;28;20054;-70
2022/05/05 05:48:56;;;;;;;16.10;8.88;;;;;;;;;;5018968;28;20080;-69
2022/05/05 05:51:27;;;;;;;13.93;8.75;;;;;;;;;;5020696;28;20068;-71
2022/05/05 05:53:54;;;;;;;19.33;9.32;;;;;;;;;;5023679;28;20056;-70
2022/05/05 05:56:20;;;;;;;16.17;9.00;;;;;;;;;;5021256;28;20083;-70
2022/05/05 05:58:46;;;;;;;15.02;8.50;;;;;;;;;;5023096;28;20102;-70
2022/05/05 06:01:13;;;;;;;15.18;8.88;;;;;;;;;;5023370;28;20069;-71
2022/05/05 06:03:54;;;;;;;14.48;9.70;;;;;;;;;;5022688;28;20058;-68
2022/05/05 06:06:21;;;;;;;12.20;8.10;;;;;;;;;;5024188;28;20057;-70
2022/05/05 06:08:48;;;;;;;18.45;8.90;;;;;;;;;;5023994;28;20079;-70
2022/05/05 06:11:14;;;;;;;16.88;9.60;;;;;;;;;;5024556;28;20524;-70
2022/05/05 06:13:41;;;;;;;14.30;8.73;;;;;;;;;;5024458;28;20517;-70
2022/05/05 06:16:09;;;;;;;21.40;10.25;;;;;;;;;;5023059;28;20050;-70
2022/05/05 06:18:36;;;;;;;18.10;9.73;;;;;;;;;;5023469;28;20144;-71
2022/05/05 06:21:03;;;;;;;13.77;9.20;;;;;;;;;;5028204;28;20066;-72
2022/05/05 06:23:29;;;;;;;14.73;9.05;;;;;;;;;;5027148;28;20046;-72
2022/05/05 06:25:56;;;;;;;16.33;9.98;;;;;;;;;;5031395;28;20161;-71
2022/05/05 06:28:22;;;;;;;14.73;9.10;;;;;;;;;;5029826;28;20049;-70
2022/05/05 06:30:48;;;;;;;15.25;9.38;;;;;;;;;;5029135;28;20076;-70
2022/05/05 06:33:14;;;;;;;25.75;10.32;;;;;;;;;;5024936;28;20058;-69
2022/05/05 06:35:41;;;;;;;13.27;8.70;;;;;;;;;;5032872;28;20056;-71
2022/05/05 06:38:07;;;;;;;18.10;9.20;;;;;;;;;;5029416;28;20498;-71
2022/05/05 06:40:34;;;;;;;17.67;9.38;;;;;;;;;;5032102;28;20060;-73
2022/05/05 06:43:01;;;;;;;20.00;10.00;;;;;;;;;;5030691;28;20077;-72
2022/05/05 06:45:27;;;;;;;15.65;8.95;;;;;;;;;;5033807;28;20058;-72
2022/05/05 06:47:54;;;;;;;16.35;9.40;;;;;;;;;;5033025;28;20049;-73
2022/05/05 06:50:21;;;;;;;20.98;10.57;;;;;;;;;;5033107;28;20418;-73
2022/05/05 06:52:48;;;;;;;15.80;9.18;;;;;;;;;;5031003;28;20498;-72
2022/05/05 06:55:15;;;;;;;17.70;9.35;;;;;;;;;;5032531;28;20050;-72
2022/05/05 06:57:43;;;;;;;23.88;10.23;;;;;;;;;;5019694;28;20054;-71
2022/05/05 07:00:11;;;;;;;15.82;9.75;;;;;;;;;;5032504;28;20053;-72
2022/05/05 07:02:37;;;;;;;21.58;10.00;;;;;;;;;;5029703;28;20050;-69
2022/05/05 07:07:49;;;;;;;15.15;9.40;;;;;;;;;;5017647;28;20088;-69
2022/05/05 07:13:01;;;;;;;18.45;8.98;;;;;;;;;;5019511;28;20108;-71
2022/05/05 07:15:28;;;;;;;18.10;9.48;;;;;;;;;;5031261;28;20066;-71
2022/05/05 07:17:54;;;;;;;17.45;8.90;;;;;;;;;;5024633;28;20058;-70
2022/05/05 07:20:20;;;;;;;19.10;10.15;;;;;;;;;;5022002;28;20054;-71
2022/05/05 07:22:47;;;;;;;15.32;10.25;;;;;;;;;;5023991;28;20145;-71
2022/05/05 07:25:14;;;;;;;21.48;10.80;;;;;;;;;;5022996;28;20053;-71
2022/05/05 07:27:41;;;;;;;15.35;9.30;;;;;;;;;;5021430;28;20051;-71
2022/05/05 07:30:07;;;;;;;15.13;9.55;;;;;;;;;;5026889;28;20403;-71
2022/05/05 07:32:33;;;;;;;15.50;8.90;;;;;;;;;;5025485;28;20802;-72
2022/05/05 07:35:00;;;;;;;14.80;8.93;;;;;;;;;;5031788;28;20523;-72
2022/05/05 07:37:26;;;;;;;14.70;9.05;;;;;;;;;;5036128;28;20900;-71
2022/05/05 07:39:52;;;;;;;15.68;9.75;;;;;;;;;;5027447;28;20116;-70
2022/05/05 07:42:19;;;;;;;19.08;9.02;;;;;;;;;;5026416;28;20054;-70
2022/05/05 07:44:45;;;;;;;15.98;9.32;;;;;;;;;;5031835;28;20053;-71
2022/05/05 07:47:11;;;;;;;16.23;9.20;;;;;;;;;;5035364;28;20058;-62
2022/05/05 07:49:38;;;;;;;18.88;9.32;;;;;;;;;;5024605;28;20419;-61
2022/05/05 07:52:04;;;;;;;16.70;9.45;;;;;;;;;;5020185;28;20058;-61
2022/05/05 07:54:42;;;;;;;14.38;8.77;;;;;;;;;;5028321;28;20524;-63
2022/05/05 07:57:09;;;;;;;25.67;9.88;;;;;;;;;;5022128;28;20035;-61
2022/05/05 07:59:35;;;;;;;17.17;8.90;;;;;;;;;;5018297;28;20387;-61
2022/05/05 08:02:03;;;;;;;25.02;8.65;;;;;;;;;;5024588;28;20137;-60
2022/05/05 08:04:29;;;;;;;16.25;8.55;;;;;;;;;;5023022;28;20054;-62
2022/05/05 08:06:56;;;;;;;14.68;8.13;;;;;;;;;;5024914;28;20054;-60
2022/05/05 08:09:23;;;;;;;14.15;7.97;;;;;;;;;;5024558;28;20050;-60
2022/05/05 08:12:09;;;;;;;16.70;8.80;;;;;;;;;;5024742;28;20049;-60
2022/05/05 08:14:36;;;;;;;21.05;9.55;;;;;;;;;;5027525;28;20072;-60
2022/05/05 08:17:02;;;;;;;16.83;8.38;;;;;;;;;;5034099;28;20057;-61
2022/05/05 08:19:30;;;;;;;18.20;8.55;;;;;;;;;;5034070;28;20058;-61
2022/05/05 08:21:56;;;;;;;19.55;8.85;;;;;;;;;;5026552;28;20046;-62
2022/05/05 08:29:52;;;;;;;19.33;9.05;;;;;;;;;;5024511;28;20053;-61
2022/05/05 08:32:19;;;;;;;17.00;8.80;;;;;;;;;;5029047;28;20058;-62
2022/05/05 08:34:46;;;;;;;15.27;9.48;;;;;;;;;;5033796;28;20050;-62
2022/05/05 08:37:13;;;;;;;16.33;9.05;;;;;;;;;;5033249;28;20485;-63
2022/05/05 08:39:39;;;;;;;16.80;10.02;;;;;;;;;;5031047;28;20050;-60
2022/05/05 08:42:06;;;;;;;20.13;10.48;;;;;;;;;;5030503;28;20053;-61
2022/05/05 08:44:32;;;;;;;19.13;10.65;;;;;;;;;;5034637;28;20178;-63
2022/05/05 08:46:59;;;;;;;19.50;10.45;;;;;;;;;;5034536;28;20060;-61
2022/05/05 08:49:25;;;;;;;19.90;9.43;;;;;;;;;;5034036;28;20057;-61
2022/05/05 08:51:53;;;;;;;16.77;9.95;;;;;;;;;;5027435;28;20064;-60
2022/05/05 08:54:25;;;;;;;16.63;9.82;;;;;;;;;;5034653;28;20056;-60
2022/05/05 08:56:52;;;;;;;19.85;10.57;;;;;;;;;;5031675;28;22092;-60
2022/05/05 08:59:19;;;;;;;18.92;9.88;;;;;;;;;;5030634;28;20486;-62
2022/05/05 09:01:45;;;;;;;19.38;9.98;;;;;;;;;;5034675;28;20487;-61
2022/05/05 09:04:12;;;;;;;24.23;11.38;;;;;;;;;;5040333;28;20045;-62
2022/05/05 09:06:42;;;;;;;20.88;12.48;;;;;;;;;;5030229;28;20494;-62
2022/05/05 09:09:22;;;;;;;20.25;11.60;;;;;;;;;;5025774;28;20046;-62
2022/05/05 09:12:04;;;;;;;23.05;12.73;;;;;;;;;;5021892;28;20053;-62
2022/05/05 09:14:39;;;;;;;19.33;12.13;;;;;;;;;;5032191;28;20054;-61
2022/05/05 09:17:06;;;;;;;20.05;11.82;;;;;;;;;;5033561;28;20050;-61
2022/05/05 09:19:36;;;;;;;18.63;11.40;;;;;;;;;;5024863;28;20049;-62
2022/05/05 09:22:03;;;;;;;25.17;12.93;;;;;;;;;;5025024;28;20061;-61
2022/05/05 09:24:36;;;;;;;24.23;12.88;;;;;;;;;;5029664;28;20414;-62
2022/05/05 09:27:13;;;;;;;21.65;12.60;;;;;;;;;;5018912;28;20050;-61
2022/05/05 09:29:39;;;;;;;17.38;12.77;;;;;;;;;;5022485;28;20054;-61
2022/05/05 09:32:11;;;;;;;20.65;13.63;;;;;;;;;;5027376;28;20068;-61
2022/05/05 09:34:37;;;;;;;20.42;13.75;;;;;;;;;;5019454;28;20486;-60
2022/05/05 09:37:17;;;;;;;26.50;15.43;;;;;;;;;;5019662;28;20061;-60
2022/05/05 09:39:43;;;;;;;20.70;14.85;;;;;;;;;;5022479;28;20053;-60
2022/05/05 09:42:10;;;;;;;26.60;15.02;;;;;;;;;;5033649;28;20060;-63
2022/05/05 09:44:49;;;;;;;27.73;15.60;;;;;;;;;;5032415;28;20065;-62
2022/05/05 09:47:15;;;;;;;30.38;16.15;;;;;;;;;;5020221;28;20057;-61
2022/05/05 09:49:58;;;;;;;24.17;15.80;;;;;;;;;;5025722;28;20058;-62
2022/05/05 09:57:58;;;;;;;25.55;16.92;;;;;;;;;;5031708;28;20057;-62
2022/05/05 10:05:42;;;;;;;23.95;16.73;;;;;;;;;;5033616;28;20046;-61
2022/05/05 10:08:09;;;;;;;28.08;16.55;;;;;;;;;;5030610;28;20053;-61
2022/05/05 10:10:37;;;;;;;25.08;16.25;;;;;;;;;;5031321;28;20058;-62
2022/05/05 10:13:03;;;;;;;23.55;16.48;;;;;;;;;;5030894;28;20058;-61
2022/05/05 10:15:37;;;;;;;25.50;16.50;;;;;;;;;;5026821;28;20058;-62
2022/05/05 10:18:23;;;;;;;21.60;15.60;;;;;;;;;;5032845;28;20054;-61
2022/05/05 10:20:50;;;;;;;20.00;14.98;;;;;;;;;;5031206;28;20060;-61
2022/05/05 10:23:21;;;;;;;25.20;15.43;;;;;;;;;;5029873;28;20089;-61
2022/05/05 10:25:54;;;;;;;26.25;15.80;;;;;;;;;;5030994;28;20425;-61
2022/05/05 10:28:39;;;;;;;23.65;15.15;;;;;;;;;;5031732;28;20075;-61
2022/05/05 10:31:09;;;;;;;21.20;14.93;;;;;;;;;;5029012;28;20056;-62
2022/05/05 10:33:55;;;;;;;22.50;14.45;;;;;;;;;;5033052;28;20117;-62
2022/05/05 10:36:25;;;;;;;17.88;14.02;;;;;;;;;;5030129;28;20056;-62
2022/05/05 10:38:52;;;;;;;21.88;14.20;;;;;;;;;;5031022;28;20052;-61
2022/05/05 10:41:31;;;;;;;19.45;13.75;;;;;;;;;;5030438;28;20049;-62
2022/05/05 10:44:16;;;;;;;20.33;14.38;;;;;;;;;;5019897;28;20137;-61
2022/05/05 10:46:52;;;;;;;20.08;14.40;;;;;;;;;;5027271;28;20133;-60
2022/05/05 10:49:40;;;;;;;18.58;14.38;;;;;;;;;;5026778;28;21316;-62
2022/05/05 10:52:12;;;;;;;18.63;13.98;;;;;;;;;;5026737;28;20141;-63
2022/05/05 10:54:41;;;;;;;26.88;14.25;;;;;;;;;;5028366;28;20517;-63
2022/05/05 10:57:25;;;;;;;21.10;13.80;;;;;;;;;;5022226;28;20061;-62
2022/05/05 11:00:10;;;;;;;18.77;13.80;;;;;;;;;;5030095;28;20046;-63
2022/05/05 11:02:37;;;;;;;18.88;13.63;;;;;;;;;;5031971;28;20132;-63
2022/05/05 11:05:28;;;;;;;17.52;12.55;;;;;;;;;;5034637;28;20153;-64
2022/05/05 11:08:17;;;;;;;16.70;13.25;;;;;;;;;;5031940;28;20146;-63
2022/05/05 11:10:45;;;;;;;19.00;11.93;;;;;;;;;;5022547;28;20053;-62
2022/05/05 11:13:31;;;;;;;17.70;12.25;;;;;;;;;;5034642;28;20157;-61
2022/05/05 11:22:13;;;;;;;15.45;11.70;;;;;;;;;;5034865;28;20057;-62
2022/05/05 11:24:47;;;;;;;23.40;14.98;;;;;;;;;;5032751;28;20213;-62
2022/05/05 11:27:17;;;;;;;21.75;13.82;;;;;;;;;;5032704;28;20060;-63
2022/05/05 11:29:48;;;;;;;21.30;14.50;;;;;;;;;;5033188;28;20058;-63
2022/05/05 11:32:16;;;;;;;20.67;13.77;;;;;;;;;;5034560;28;20141;-62
2022/05/05 11:34:45;;;;;;;21.40;13.98;;;;;;;;;;5032112;28;20524;-62
2022/05/05 11:37:11;;;;;;;15.77;12.45;;;;;;;;;;5035092;28;20084;-63
2022/05/05 11:39:38;;;;;;;16.33;11.63;;;;;;;;;;5035585;28;20141;-62
2022/05/05 11:42:04;;;;;;;15.57;11.38;;;;;;;;;;5035402;28;20061;-63
2022/05/05 11:44:32;;;;;;;19.48;14.27;;;;;;;;;;5034709;28;20050;-62
2022/05/05 11:47:07;;;;;;;18.15;13.45;;;;;;;;;;5035788;28;20049;-63
2022/05/05 11:49:35;;;;;;;19.63;13.90;;;;;;;;;;5034228;28;20050;-64
2022/05/05 11:52:02;;;;;;;19.55;13.85;;;;;;;;;;5034591;28;20069;-64
2022/05/05 11:54:29;;;;;;;19.35;14.00;;;;;;;;;;5035163;28;20498;-62
2022/05/05 11:56:56;;;;;;;18.98;14.35;;;;;;;;;;5030061;28;20157;-62
2022/05/05 12:02:18;;;;;;;19.40;14.40;;;;;;;;;;5033496;28;20054;-63
2022/05/05 12:04:45;;;;;;;24.70;15.13;;;;;;;;;;5035663;28;20510;-63
2022/05/05 12:07:18;;;;;;;20.40;15.10;;;;;;;;;;5046030;28;20081;-61
2022/05/05 12:09:49;;;;;;;22.48;15.38;;;;;;;;;;5033002;28;20513;-62
2022/05/05 12:12:17;;;;;;;24.45;15.68;;;;;;;;;;5032981;28;20054;-62
2022/05/05 12:14:45;;;;;;;19.23;14.80;;;;;;;;;;5034010;28;20514;-63
2022/05/05 12:17:11;;;;;;;21.45;15.35;;;;;;;;;;5034847;28;20080;-64
2022/05/05 12:19:46;;;;;;;16.77;14.32;;;;;;;;;;5032877;28;20057;-61
2022/05/05 12:22:19;;;;;;;20.05;15.63;;;;;;;;;;5032659;28;20060;-60
2022/05/05 12:24:49;;;;;;;18.05;14.77;;;;;;;;;;5034425;28;20060;-61
2022/05/05 12:27:15;;;;;;;24.20;17.00;;;;;;;;;;5034366;28;20152;-61
2022/05/05 12:29:43;;;;;;;22.75;16.35;;;;;;;;;;5031207;28;20046;-63
2022/05/05 12:32:10;;;;;;;22.17;17.00;;;;;;;;;;5034245;28;20053;-62
2022/05/05 12:34:37;;;;;;;22.42;18.05;;;;;;;;;;5031179;28;20137;-62
2022/05/05 12:37:16;;;;;;;26.60;16.80;;;;;;;;;;5034106;28;20050;-62
2022/05/05 12:39:56;;;;;;;22.98;16.60;;;;;;;;;;5031615;28;20068;-62
2022/05/05 12:42:24;;;;;;;22.73;17.88;;;;;;;;;;5032393;28;20060;-63
2022/05/05 12:44:51;;;;;;;22.75;17.02;;;;;;;;;;5032087;28;20046;-61
2022/05/05 12:47:22;;;;;;;20.98;17.08;;;;;;;;;;5032073;28;20050;-62
2022/05/05 12:49:48;;;;;;;29.38;18.45;;;;;;;;;;5034397;28;20054;-62
2022/05/05 13:00:47;;;;;;;26.50;19.10;;;;;;;;;;5025458;28;20305;-61
2022/05/05 13:03:34;;;;;;;25.20;17.02;;;;;;;;;;5021372;28;20046;-62
2022/05/05 13:06:01;;;;;;;24.35;16.10;;;;;;;;;;5027586;28;20053;-63
2022/05/05 13:08:47;;;;;;;18.00;14.02;;;;;;;;;;5025520;28;20046;-62
2022/05/05 13:11:17;;;;;;;17.92;14.15;;;;;;;;;;5023306;28;20200;-61
2022/05/05 13:13:48;;;;;;;18.08;13.52;;;;;;;;;;5024736;28;20046;-61
2022/05/05 13:16:17;;;;;;;12.95;10.88;;;;;;;;;;5020499;28;20144;-60
2022/05/05 13:18:43;;;;;;;18.50;13.20;;;;;;;;;;5020644;28;20473;-60
2022/05/05 13:21:10;;;;;;;16.77;13.35;;;;;;;;;;5021306;28;20050;-61
2022/05/05 13:23:36;;;;;;;19.10;13.85;;;;;;;;;;5020059;28;21098;-60
2022/05/05 13:26:03;;;;;;;22.05;13.20;;;;;;;;;;5026594;28;20502;-59
2022/05/05 13:28:31;;;;;;;19.92;14.68;;;;;;;;;;5045134;28;20060;-61
2022/05/05 13:30:57;;;;;;;20.38;14.45;;;;;;;;;;5030627;28;20053;-63
2022/05/05 13:33:24;;;;;;;19.98;14.82;;;;;;;;;;5024132;28;20057;-61
2022/05/05 13:35:50;;;;;;;21.65;14.40;;;;;;;;;;5033095;28;20050;-63
2022/05/05 13:38:17;;;;;;;16.50;13.82;;;;;;;;;;5032350;28;20050;-63
2022/05/05 13:40:44;;;;;;;16.30;13.98;;;;;;;;;;5022506;28;20054;-64
2022/05/05 13:43:10;;;;;;;18.65;15.10;;;;;;;;;;5018801;28;20058;-63
2022/05/05 13:45:36;;;;;;;21.05;16.35;;;;;;;;;;5026942;28;20049;-63
2022/05/05 13:48:04;;;;;;;18.67;14.77;;;;;;;;;;5030380;28;20089;-63
2022/05/05 13:50:30;;;;;;;21.58;14.30;;;;;;;;;;5019749;28;20077;-62
2022/05/05 13:52:57;;;;;;;15.52;13.00;;;;;;;;;;5018397;28;20066;-62
2022/05/05 13:55:23;;;;;;;17.98;11.88;;;;;;;;;;5022910;28;20058;-62
2022/05/05 13:57:49;;;;;;;21.98;15.63;;;;;;;;;;5017562;28;20054;-62
2022/05/05 14:00:16;;;;;;;20.02;15.07;;;;;;;;;;5015120;28;20526;-63
2022/05/05 14:02:42;;;;;;;18.05;15.07;;;;;;;;;;5019374;28;20556;-62
2022/05/05 14:05:09;;;;;;;19.90;14.48;;;;;;;;;;5020653;28;20058;-61
2022/05/05 14:13:06;;;;;;;19.67;15.93;;;;;;;;;;5025297;28;20061;-60
2022/05/05 14:15:32;;;;;;;20.52;16.00;;;;;;;;;;5024869;28;20056;-62
2022/05/05 14:18:00;;;;;;;19.75;15.88;;;;;;;;;;5021283;28;20509;-62
2022/05/05 14:20:28;;;;;;;21.98;15.90;;;;;;;;;;5021203;28;20108;-62
2022/05/05 14:22:55;;;;;;;23.27;17.08;;;;;;;;;;5018945;28;20520;-62
2022/05/05 14:25:21;;;;;;;26.42;16.50;;;;;;;;;;5021532;28;20046;-62
2022/05/05 14:27:48;;;;;;;23.73;16.98;;;;;;;;;;5035917;28;20129;-62
2022/05/05 14:30:14;;;;;;;22.65;15.20;;;;;;;;;;5034795;28;20490;-61
2022/05/05 14:32:40;;;;;;;21.08;16.63;;;;;;;;;;5031169;28;20050;-62
2022/05/05 14:35:13;;;;;;;23.02;16.40;;;;;;;;;;5025901;28;20060;-62
2022/05/05 14:37:39;;;;;;;19.75;15.45;;;;;;;;;;5025217;28;20588;-61
2022/05/05 14:40:07;;;;;;;22.98;15.52;;;;;;;;;;5031352;28;20425;-61
2022/05/05 14:42:33;;;;;;;18.55;15.50;;;;;;;;;;5027844;28;20053;-62
2022/05/05 14:45:00;;;;;;;20.02;15.80;;;;;;;;;;5042553;28;20528;-61
2022/05/05 14:47:26;;;;;;;20.85;15.85;;;;;;;;;;5031667;28;20433;-61
2022/05/05 14:49:55;;;;;;;19.88;15.82;;;;;;;;;;5028539;28;20089;-62
2022/05/05 14:52:22;;;;;;;17.52;14.73;;;;;;;;;;5030019;28;20057;-63
2022/05/05 14:54:49;;;;;;;17.85;13.77;;;;;;;;;;5028545;28;20081;-62
2022/05/05 14:57:16;;;;;;;16.80;12.75;;;;;;;;;;5031418;28;20502;-61
2022/05/05 14:59:42;;;;;;;17.48;13.65;;;;;;;;;;5030195;28;20510;-62
2022/05/05 15:02:09;;;;;;;16.05;13.88;;;;;;;;;;5031973;28;20176;-63
2022/05/05 15:04:35;;;;;;;21.52;14.25;;;;;;;;;;5030930;28;20054;-62
2022/05/05 15:07:02;;;;;;;16.25;13.35;;;;;;;;;;5032064;28;20494;-62
2022/05/05 15:09:29;;;;;;;17.58;14.70;;;;;;;;;;5031643;28;20057;-63
2022/05/05 15:11:57;;;;;;;18.70;15.25;;;;;;;;;;5030466;28;20061;-63
2022/05/05 15:14:25;;;;;;;20.40;13.57;;;;;;;;;;5027411;28;20096;-63
2022/05/05 15:16:51;;;;;;;18.58;13.93;;;;;;;;;;5028539;28;20053;-63
2022/05/05 15:19:18;;;;;;;18.02;13.95;;;;;;;;;;5031844;28;20473;-62
2022/05/05 15:21:44;;;;;;;18.02;14.20;;;;;;;;;;5032287;28;20053;-62
2022/05/05 15:24:12;;;;;;;21.23;15.63;;;;;;;;;;5029467;28;20069;-62